sensor_id;sensor_type;location;lat;lon;timestamp;P1;durP1;ratioP1;P2;durP2;ratioP2
18804;SDS011;9530;48.930;9.526;2023-01-01T00:00:29;7.90;;;5.50;;
18804;SDS011;9530;48.930;9.526;2023-01-01T00:02:57;9.03;;;6.37;;
18804;SDS011;9530;48.930;9.526;2023-01-01T00:05:24;11.40;;;6.37;;
18804;SDS011;9530;48.930;9.526;2023-01-01T00:07:50;10.27;;;7.53;;
18804;SDS011;9530;48.930;9.526;2023-01-01T00:10:18;12.20;;;7.70;;
18804;SDS011;9530;48.930;9.526;2023-01-01T00:12:53;13.07;;;8.40;;
18804;SDS011;9530;48.930;9.526;2023-01-01T00:15:20;15.07;;;8.83;;
18804;SDS011;9530;48.930;9.526;2023-01-01T00:17:47;13.97;;;9.03;;
18804;SDS011;9530;48.930;9.526;2023-01-01T00:20:15;14.13;;;9.27;;
18804;SDS011;9530;48.930;9.526;2023-01-01T00:22:42;13.30;;;9.67;;
18804;SDS011;9530;48.930;9.526;2023-01-01T00:25:09;14.67;;;10.27;;
18804;SDS011;9530;48.930;9.526;2023-01-01T00:27:37;12.33;;;9.07;;
18804;SDS011;9530;48.930;9.526;2023-01-01T00:30:05;13.43;;;9.27;;
18804;SDS011;9530;48.930;9.526;2023-01-01T00:32:32;14.53;;;9.87;;
18804;SDS011;9530;48.930;9.526;2023-01-01T00:34:59;15.43;;;10.53;;
18804;SDS011;9530;48.930;9.526;2023-01-01T00:37:27;15.03;;;10.20;;
18804;SDS011;9530;48.930;9.526;2023-01-01T00:39:54;17.27;;;11.00;;
18804;SDS011;9530;48.930;9.526;2023-01-01T00:42:21;13.97;;;10.10;;
18804;SDS011;9530;48.930;9.526;2023-01-01T00:44:48;14.60;;;10.27;;
18804;SDS011;9530;48.930;9.526;2023-01-01T00:47:14;16.97;;;11.67;;
18804;SDS011;9530;48.930;9.526;2023-01-01T00:49:41;12.43;;;10.10;;
18804;SDS011;9530;48.930;9.526;2023-01-01T00:52:08;17.37;;;11.43;;
18804;SDS011;9530;48.930;9.526;2023-01-01T00:54:36;16.07;;;11.03;;
18804;SDS011;9530;48.930;9.526;2023-01-01T00:57:02;15.67;;;10.57;;
18804;SDS011;9530;48.930;9.526;2023-01-01T00:59:29;15.40;;;11.40;;
18804;SDS011;9530;48.930;9.526;2023-01-01T01:01:56;14.60;;;10.17;;
18804;SDS011;9530;48.930;9.526;2023-01-01T01:04:22;17.20;;;11.00;;
18804;SDS011;9530;48.930;9.526;2023-01-01T01:06:49;17.97;;;11.20;;
18804;SDS011;9530;48.930;9.526;2023-01-01T01:09:16;15.97;;;10.33;;
18804;SDS011;9530;48.930;9.526;2023-01-01T01:11:44;14.30;;;10.30;;
18804;SDS011;9530;48.930;9.526;2023-01-01T01:14:10;15.00;;;10.10;;
18804;SDS011;9530;48.930;9.526;2023-01-01T01:16:38;12.00;;;8.97;;
18804;SDS011;9530;48.930;9.526;2023-01-01T01:19:05;13.53;;;8.57;;
18804;SDS011;9530;48.930;9.526;2023-01-01T01:21:37;13.37;;;7.67;;
18804;SDS011;9530;48.930;9.526;2023-01-01T01:24:04;9.63;;;6.20;;
18804;SDS011;9530;48.930;9.526;2023-01-01T01:26:32;6.57;;;4.97;;
18804;SDS011;9530;48.930;9.526;2023-01-01T01:29:00;8.60;;;5.10;;
18804;SDS011;9530;48.930;9.526;2023-01-01T01:31:28;8.10;;;5.10;;
18804;SDS011;9530;48.930;9.526;2023-01-01T01:33:56;8.23;;;4.97;;
18804;SDS011;9530;48.930;9.526;2023-01-01T01:36:23;7.30;;;4.93;;
18804;SDS011;9530;48.930;9.526;2023-01-01T01:38:50;10.07;;;5.23;;
18804;SDS011;9530;48.930;9.526;2023-01-01T01:41:17;7.40;;;5.03;;
18804;SDS011;9530;48.930;9.526;2023-01-01T01:43:49;8.93;;;4.73;;
18804;SDS011;9530;48.930;9.526;2023-01-01T01:46:20;7.93;;;5.13;;
18804;SDS011;9530;48.930;9.526;2023-01-01T01:48:52;7.67;;;5.00;;
18804;SDS011;9530;48.930;9.526;2023-01-01T01:51:21;7.80;;;5.10;;
18804;SDS011;9530;48.930;9.526;2023-01-01T01:53:53;9.63;;;5.73;;
18804;SDS011;9530;48.930;9.526;2023-01-01T01:56:25;8.17;;;5.27;;
18804;SDS011;9530;48.930;9.526;2023-01-01T01:58:55;6.53;;;4.90;;
18804;SDS011;9530;48.930;9.526;2023-01-01T02:01:23;8.40;;;5.57;;
18804;SDS011;9530;48.930;9.526;2023-01-01T02:03:52;6.63;;;5.30;;
18804;SDS011;9530;48.930;9.526;2023-01-01T02:06:22;7.97;;;5.43;;
18804;SDS011;9530;48.930;9.526;2023-01-01T02:08:49;8.50;;;6.07;;
18804;SDS011;9530;48.930;9.526;2023-01-01T02:11:17;9.23;;;6.03;;
18804;SDS011;9530;48.930;9.526;2023-01-01T02:13:43;9.40;;;5.90;;
18804;SDS011;9530;48.930;9.526;2023-01-01T02:16:11;8.37;;;5.77;;
18804;SDS011;9530;48.930;9.526;2023-01-01T02:18:43;11.83;;;6.03;;
18804;SDS011;9530;48.930;9.526;2023-01-01T02:21:16;7.27;;;5.03;;
18804;SDS011;9530;48.930;9.526;2023-01-01T02:26:51;6.60;;;5.20;;
18804;SDS011;9530;48.930;9.526;2023-01-01T02:29:25;5.90;;;4.63;;
18804;SDS011;9530;48.930;9.526;2023-01-01T02:31:58;7.13;;;5.20;;
18804;SDS011;9530;48.930;9.526;2023-01-01T02:34:29;8.23;;;5.57;;
18804;SDS011;9530;48.930;9.526;2023-01-01T02:37:00;7.37;;;4.87;;
18804;SDS011;9530;48.930;9.526;2023-01-01T02:39:30;6.83;;;5.10;;
18804;SDS011;9530;48.930;9.526;2023-01-01T02:41:59;8.83;;;5.50;;
18804;SDS011;9530;48.930;9.526;2023-01-01T02:44:31;9.63;;;5.17;;
18804;SDS011;9530;48.930;9.526;2023-01-01T02:47:08;8.50;;;5.57;;
18804;SDS011;9530;48.930;9.526;2023-01-01T02:49:37;9.40;;;5.30;;
18804;SDS011;9530;48.930;9.526;2023-01-01T02:52:10;6.73;;;4.73;;
18804;SDS011;9530;48.930;9.526;2023-01-01T02:54:48;10.13;;;5.30;;
18804;SDS011;9530;48.930;9.526;2023-01-01T02:57:22;8.07;;;5.33;;
18804;SDS011;9530;48.930;9.526;2023-01-01T02:59:59;10.07;;;4.77;;
18804;SDS011;9530;48.930;9.526;2023-01-01T03:02:50;8.00;;;5.33;;
18804;SDS011;9530;48.930;9.526;2023-01-01T03:05:41;9.03;;;5.50;;
18804;SDS011;9530;48.930;9.526;2023-01-01T03:08:35;7.27;;;4.83;;
18804;SDS011;9530;48.930;9.526;2023-01-01T03:11:09;7.07;;;4.50;;
18804;SDS011;9530;48.930;9.526;2023-01-01T03:13:40;8.17;;;5.00;;
18804;SDS011;9530;48.930;9.526;2023-01-01T03:16:12;7.53;;;5.47;;
18804;SDS011;9530;48.930;9.526;2023-01-01T03:18:45;6.37;;;4.77;;
18804;SDS011;9530;48.930;9.526;2023-01-01T03:21:34;7.57;;;4.93;;
18804;SDS011;9530;48.930;9.526;2023-01-01T03:24:03;6.33;;;4.97;;
18804;SDS011;9530;48.930;9.526;2023-01-01T03:26:31;6.90;;;5.20;;
18804;SDS011;9530;48.930;9.526;2023-01-01T03:29:00;9.47;;;5.20;;
18804;SDS011;9530;48.930;9.526;2023-01-01T03:31:30;7.33;;;5.07;;
18804;SDS011;9530;48.930;9.526;2023-01-01T03:33:59;8.77;;;4.90;;
18804;SDS011;9530;48.930;9.526;2023-01-01T03:36:31;6.43;;;4.80;;
18804;SDS011;9530;48.930;9.526;2023-01-01T03:39:02;8.77;;;4.67;;
18804;SDS011;9530;48.930;9.526;2023-01-01T03:41:34;7.53;;;4.97;;
18804;SDS011;9530;48.930;9.526;2023-01-01T03:44:05;8.03;;;4.93;;
18804;SDS011;9530;48.930;9.526;2023-01-01T03:46:37;6.70;;;4.50;;
18804;SDS011;9530;48.930;9.526;2023-01-01T03:49:04;6.80;;;4.47;;
18804;SDS011;9530;48.930;9.526;2023-01-01T03:51:39;6.63;;;4.60;;
18804;SDS011;9530;48.930;9.526;2023-01-01T03:54:22;7.47;;;4.67;;
18804;SDS011;9530;48.930;9.526;2023-01-01T03:56:56;5.30;;;4.20;;
18804;SDS011;9530;48.930;9.526;2023-01-01T03:59:28;7.47;;;4.60;;
18804;SDS011;9530;48.930;9.526;2023-01-01T04:02:01;5.70;;;4.00;;
18804;SDS011;9530;48.930;9.526;2023-01-01T04:04:32;6.47;;;4.60;;
18804;SDS011;9530;48.930;9.526;2023-01-01T04:07:00;6.47;;;4.50;;
18804;SDS011;9530;48.930;9.526;2023-01-01T04:09:27;6.53;;;4.07;;
18804;SDS011;9530;48.930;9.526;2023-01-01T04:11:56;6.87;;;4.10;;
18804;SDS011;9530;48.930;9.526;2023-01-01T04:14:28;6.37;;;4.00;;
18804;SDS011;9530;48.930;9.526;2023-01-01T04:16:57;5.67;;;3.90;;
18804;SDS011;9530;48.930;9.526;2023-01-01T04:19:26;6.23;;;4.23;;
18804;SDS011;9530;48.930;9.526;2023-01-01T04:21:53;6.00;;;3.90;;
18804;SDS011;9530;48.930;9.526;2023-01-01T04:24:20;6.93;;;3.83;;
18804;SDS011;9530;48.930;9.526;2023-01-01T04:26:47;5.93;;;3.73;;
18804;SDS011;9530;48.930;9.526;2023-01-01T04:29:14;4.70;;;3.30;;
18804;SDS011;9530;48.930;9.526;2023-01-01T04:31:41;5.53;;;3.30;;
18804;SDS011;9530;48.930;9.526;2023-01-01T04:34:08;5.33;;;3.47;;
18804;SDS011;9530;48.930;9.526;2023-01-01T04:36:36;4.53;;;3.23;;
18804;SDS011;9530;48.930;9.526;2023-01-01T04:39:03;7.67;;;3.60;;
18804;SDS011;9530;48.930;9.526;2023-01-01T04:41:30;5.63;;;3.33;;
18804;SDS011;9530;48.930;9.526;2023-01-01T04:43:57;5.80;;;3.70;;
18804;SDS011;9530;48.930;9.526;2023-01-01T04:46:23;5.90;;;3.73;;
18804;SDS011;9530;48.930;9.526;2023-01-01T04:48:50;6.87;;;3.40;;
18804;SDS011;9530;48.930;9.526;2023-01-01T04:51:17;7.37;;;3.53;;
18804;SDS011;9530;48.930;9.526;2023-01-01T04:53:47;5.87;;;3.40;;
18804;SDS011;9530;48.930;9.526;2023-01-01T04:56:14;4.53;;;3.30;;
18804;SDS011;9530;48.930;9.526;2023-01-01T04:58:42;8.07;;;3.67;;
18804;SDS011;9530;48.930;9.526;2023-01-01T05:01:13;6.97;;;3.03;;
18804;SDS011;9530;48.930;9.526;2023-01-01T05:03:40;4.90;;;3.20;;
18804;SDS011;9530;48.930;9.526;2023-01-01T05:06:08;4.63;;;2.80;;
18804;SDS011;9530;48.930;9.526;2023-01-01T05:08:36;4.07;;;2.90;;
18804;SDS011;9530;48.930;9.526;2023-01-01T05:11:06;6.30;;;3.20;;
18804;SDS011;9530;48.930;9.526;2023-01-01T05:13:34;4.37;;;2.60;;
18804;SDS011;9530;48.930;9.526;2023-01-01T05:16:01;4.07;;;2.50;;
18804;SDS011;9530;48.930;9.526;2023-01-01T05:18:29;6.07;;;2.93;;
18804;SDS011;9530;48.930;9.526;2023-01-01T05:20:57;6.27;;;2.80;;
18804;SDS011;9530;48.930;9.526;2023-01-01T05:23:25;5.27;;;2.90;;
18804;SDS011;9530;48.930;9.526;2023-01-01T05:25:52;4.40;;;3.20;;
18804;SDS011;9530;48.930;9.526;2023-01-01T05:28:20;7.63;;;3.00;;
18804;SDS011;9530;48.930;9.526;2023-01-01T05:30:47;3.40;;;2.50;;
18804;SDS011;9530;48.930;9.526;2023-01-01T05:33:14;3.50;;;2.20;;
18804;SDS011;9530;48.930;9.526;2023-01-01T05:35:40;3.57;;;2.50;;
18804;SDS011;9530;48.930;9.526;2023-01-01T05:38:07;3.93;;;2.23;;
18804;SDS011;9530;48.930;9.526;2023-01-01T05:40:36;5.33;;;2.70;;
18804;SDS011;9530;48.930;9.526;2023-01-01T05:43:03;6.90;;;2.60;;
18804;SDS011;9530;48.930;9.526;2023-01-01T05:45:31;6.60;;;2.73;;
18804;SDS011;9530;48.930;9.526;2023-01-01T05:47:58;5.17;;;2.47;;
18804;SDS011;9530;48.930;9.526;2023-01-01T05:50:25;3.63;;;2.20;;
18804;SDS011;9530;48.930;9.526;2023-01-01T05:52:52;5.23;;;2.70;;
18804;SDS011;9530;48.930;9.526;2023-01-01T05:55:18;4.63;;;2.50;;
18804;SDS011;9530;48.930;9.526;2023-01-01T05:57:45;4.67;;;2.40;;
18804;SDS011;9530;48.930;9.526;2023-01-01T06:00:12;2.77;;;2.13;;
18804;SDS011;9530;48.930;9.526;2023-01-01T06:02:41;4.43;;;2.40;;
18804;SDS011;9530;48.930;9.526;2023-01-01T06:05:07;4.50;;;2.63;;
18804;SDS011;9530;48.930;9.526;2023-01-01T06:07:34;5.20;;;2.37;;
18804;SDS011;9530;48.930;9.526;2023-01-01T06:10:01;3.33;;;2.40;;
18804;SDS011;9530;48.930;9.526;2023-01-01T06:12:28;5.43;;;2.70;;
18804;SDS011;9530;48.930;9.526;2023-01-01T06:14:54;3.20;;;2.30;;
18804;SDS011;9530;48.930;9.526;2023-01-01T06:17:21;4.17;;;2.50;;
18804;SDS011;9530;48.930;9.526;2023-01-01T06:19:49;4.23;;;2.40;;
18804;SDS011;9530;48.930;9.526;2023-01-01T06:22:16;3.93;;;2.33;;
18804;SDS011;9530;48.930;9.526;2023-01-01T06:24:42;4.53;;;2.40;;
18804;SDS011;9530;48.930;9.526;2023-01-01T06:27:09;3.57;;;2.03;;
18804;SDS011;9530;48.930;9.526;2023-01-01T06:29:35;2.93;;;2.00;;
18804;SDS011;9530;48.930;9.526;2023-01-01T06:32:02;5.20;;;2.30;;
18804;SDS011;9530;48.930;9.526;2023-01-01T06:34:29;2.93;;;2.00;;
18804;SDS011;9530;48.930;9.526;2023-01-01T06:36:57;3.93;;;2.60;;
18804;SDS011;9530;48.930;9.526;2023-01-01T06:39:24;5.90;;;2.53;;
18804;SDS011;9530;48.930;9.526;2023-01-01T06:41:51;4.97;;;2.10;;
18804;SDS011;9530;48.930;9.526;2023-01-01T06:44:17;4.97;;;2.20;;
18804;SDS011;9530;48.930;9.526;2023-01-01T06:46:44;3.10;;;2.13;;
18804;SDS011;9530;48.930;9.526;2023-01-01T06:49:10;4.20;;;2.47;;
18804;SDS011;9530;48.930;9.526;2023-01-01T06:51:38;3.53;;;2.27;;
18804;SDS011;9530;48.930;9.526;2023-01-01T06:54:08;4.97;;;2.07;;
18804;SDS011;9530;48.930;9.526;2023-01-01T06:56:35;3.97;;;2.20;;
18804;SDS011;9530;48.930;9.526;2023-01-01T06:59:03;4.30;;;2.10;;
18804;SDS011;9530;48.930;9.526;2023-01-01T07:01:30;5.37;;;2.23;;
18804;SDS011;9530;48.930;9.526;2023-01-01T07:03:59;3.20;;;1.90;;
18804;SDS011;9530;48.930;9.526;2023-01-01T07:06:28;3.13;;;2.00;;
18804;SDS011;9530;48.930;9.526;2023-01-01T07:08:56;3.37;;;1.87;;
18804;SDS011;9530;48.930;9.526;2023-01-01T07:11:24;5.00;;;2.10;;
18804;SDS011;9530;48.930;9.526;2023-01-01T07:13:51;3.80;;;2.03;;
18804;SDS011;9530;48.930;9.526;2023-01-01T07:16:18;4.03;;;1.90;;
18804;SDS011;9530;48.930;9.526;2023-01-01T07:18:45;4.23;;;2.00;;
18804;SDS011;9530;48.930;9.526;2023-01-01T07:21:26;3.43;;;1.83;;
18804;SDS011;9530;48.930;9.526;2023-01-01T07:23:55;4.57;;;1.93;;
18804;SDS011;9530;48.930;9.526;2023-01-01T07:26:23;3.47;;;1.80;;
18804;SDS011;9530;48.930;9.526;2023-01-01T07:28:51;5.03;;;2.00;;
18804;SDS011;9530;48.930;9.526;2023-01-01T07:31:18;3.33;;;2.00;;
18804;SDS011;9530;48.930;9.526;2023-01-01T07:33:45;5.30;;;2.03;;
18804;SDS011;9530;48.930;9.526;2023-01-01T07:36:12;4.27;;;2.20;;
18804;SDS011;9530;48.930;9.526;2023-01-01T07:38:38;3.67;;;2.17;;
18804;SDS011;9530;48.930;9.526;2023-01-01T07:41:05;2.93;;;1.77;;
18804;SDS011;9530;48.930;9.526;2023-01-01T07:43:33;3.00;;;1.87;;
18804;SDS011;9530;48.930;9.526;2023-01-01T07:46:00;5.77;;;2.10;;
18804;SDS011;9530;48.930;9.526;2023-01-01T07:48:27;3.40;;;2.10;;
18804;SDS011;9530;48.930;9.526;2023-01-01T07:50:54;5.57;;;3.00;;
18804;SDS011;9530;48.930;9.526;2023-01-01T07:53:21;6.40;;;2.40;;
18804;SDS011;9530;48.930;9.526;2023-01-01T07:55:48;6.17;;;2.00;;
18804;SDS011;9530;48.930;9.526;2023-01-01T07:58:14;3.43;;;1.90;;
18804;SDS011;9530;48.930;9.526;2023-01-01T08:00:45;4.03;;;2.03;;
18804;SDS011;9530;48.930;9.526;2023-01-01T08:03:12;3.57;;;1.97;;
18804;SDS011;9530;48.930;9.526;2023-01-01T08:05:39;3.57;;;1.77;;
18804;SDS011;9530;48.930;9.526;2023-01-01T08:08:06;5.00;;;1.90;;
18804;SDS011;9530;48.930;9.526;2023-01-01T08:10:33;3.17;;;2.10;;
18804;SDS011;9530;48.930;9.526;2023-01-01T08:13:00;5.70;;;2.50;;
18804;SDS011;9530;48.930;9.526;2023-01-01T08:15:28;5.17;;;2.40;;
18804;SDS011;9530;48.930;9.526;2023-01-01T08:17:57;3.87;;;2.27;;
18804;SDS011;9530;48.930;9.526;2023-01-01T08:20:24;7.00;;;2.20;;
18804;SDS011;9530;48.930;9.526;2023-01-01T08:22:51;5.17;;;2.50;;
18804;SDS011;9530;48.930;9.526;2023-01-01T08:25:18;4.37;;;2.20;;
18804;SDS011;9530;48.930;9.526;2023-01-01T08:27:45;4.03;;;2.63;;
18804;SDS011;9530;48.930;9.526;2023-01-01T08:30:12;4.77;;;2.60;;
18804;SDS011;9530;48.930;9.526;2023-01-01T08:32:40;4.07;;;2.20;;
18804;SDS011;9530;48.930;9.526;2023-01-01T08:35:08;3.97;;;2.70;;
18804;SDS011;9530;48.930;9.526;2023-01-01T08:37:35;6.07;;;2.50;;
18804;SDS011;9530;48.930;9.526;2023-01-01T08:40:02;4.13;;;2.67;;
18804;SDS011;9530;48.930;9.526;2023-01-01T08:42:29;4.43;;;2.20;;
18804;SDS011;9530;48.930;9.526;2023-01-01T08:44:56;3.57;;;2.23;;
18804;SDS011;9530;48.930;9.526;2023-01-01T08:47:23;6.27;;;2.57;;
18804;SDS011;9530;48.930;9.526;2023-01-01T08:49:51;6.00;;;2.60;;
18804;SDS011;9530;48.930;9.526;2023-01-01T08:52:19;5.80;;;2.63;;
18804;SDS011;9530;48.930;9.526;2023-01-01T08:54:46;5.13;;;2.57;;
18804;SDS011;9530;48.930;9.526;2023-01-01T08:57:13;5.27;;;2.60;;
18804;SDS011;9530;48.930;9.526;2023-01-01T08:59:40;4.60;;;2.40;;
18804;SDS011;9530;48.930;9.526;2023-01-01T09:02:07;4.13;;;2.43;;
18804;SDS011;9530;48.930;9.526;2023-01-01T09:04:35;3.03;;;2.30;;
18804;SDS011;9530;48.930;9.526;2023-01-01T09:07:01;6.60;;;2.70;;
18804;SDS011;9530;48.930;9.526;2023-01-01T09:09:29;4.90;;;2.27;;
18804;SDS011;9530;48.930;9.526;2023-01-01T09:11:56;4.67;;;2.10;;
18804;SDS011;9530;48.930;9.526;2023-01-01T09:14:27;4.30;;;2.40;;
18804;SDS011;9530;48.930;9.526;2023-01-01T09:16:54;5.27;;;2.63;;
18804;SDS011;9530;48.930;9.526;2023-01-01T09:19:21;5.07;;;2.37;;
18804;SDS011;9530;48.930;9.526;2023-01-01T09:21:48;6.60;;;2.80;;
18804;SDS011;9530;48.930;9.526;2023-01-01T09:24:14;5.47;;;2.47;;
18804;SDS011;9530;48.930;9.526;2023-01-01T09:26:43;4.40;;;2.37;;
18804;SDS011;9530;48.930;9.526;2023-01-01T09:29:10;6.33;;;2.90;;
18804;SDS011;9530;48.930;9.526;2023-01-01T09:31:37;4.93;;;2.77;;
18804;SDS011;9530;48.930;9.526;2023-01-01T09:34:03;6.03;;;2.20;;
18804;SDS011;9530;48.930;9.526;2023-01-01T09:36:30;3.50;;;2.30;;
18804;SDS011;9530;48.930;9.526;2023-01-01T09:38:58;5.03;;;2.10;;
18804;SDS011;9530;48.930;9.526;2023-01-01T09:41:29;3.87;;;2.13;;
18804;SDS011;9530;48.930;9.526;2023-01-01T09:44:08;4.47;;;2.20;;
18804;SDS011;9530;48.930;9.526;2023-01-01T09:46:44;4.40;;;2.40;;
18804;SDS011;9530;48.930;9.526;2023-01-01T09:49:12;5.40;;;2.67;;
18804;SDS011;9530;48.930;9.526;2023-01-01T09:51:42;6.40;;;2.10;;
18804;SDS011;9530;48.930;9.526;2023-01-01T09:54:15;6.60;;;2.33;;
18804;SDS011;9530;48.930;9.526;2023-01-01T09:56:51;4.90;;;2.63;;
18804;SDS011;9530;48.930;9.526;2023-01-01T09:59:21;5.60;;;2.80;;
18804;SDS011;9530;48.930;9.526;2023-01-01T10:01:49;6.03;;;2.60;;
18804;SDS011;9530;48.930;9.526;2023-01-01T10:04:24;6.13;;;2.20;;
18804;SDS011;9530;48.930;9.526;2023-01-01T10:07:01;4.43;;;2.27;;
18804;SDS011;9530;48.930;9.526;2023-01-01T10:09:37;7.63;;;1.97;;
18804;SDS011;9530;48.930;9.526;2023-01-01T10:12:13;3.93;;;2.30;;
18804;SDS011;9530;48.930;9.526;2023-01-01T10:14:47;4.77;;;2.30;;
18804;SDS011;9530;48.930;9.526;2023-01-01T10:17:17;6.17;;;1.93;;
18804;SDS011;9530;48.930;9.526;2023-01-01T10:19:48;8.13;;;2.30;;
18804;SDS011;9530;48.930;9.526;2023-01-01T10:22:19;4.27;;;2.33;;
18804;SDS011;9530;48.930;9.526;2023-01-01T10:24:49;4.30;;;2.03;;
18804;SDS011;9530;48.930;9.526;2023-01-01T10:27:25;5.43;;;2.20;;
18804;SDS011;9530;48.930;9.526;2023-01-01T10:30:00;2.80;;;1.90;;
18804;SDS011;9530;48.930;9.526;2023-01-01T10:32:29;8.37;;;2.17;;
18804;SDS011;9530;48.930;9.526;2023-01-01T10:34:57;4.20;;;2.10;;
18804;SDS011;9530;48.930;9.526;2023-01-01T10:37:25;3.20;;;2.00;;
18804;SDS011;9530;48.930;9.526;2023-01-01T10:39:56;6.00;;;2.27;;
18804;SDS011;9530;48.930;9.526;2023-01-01T10:42:24;4.87;;;2.00;;
18804;SDS011;9530;48.930;9.526;2023-01-01T10:44:51;3.40;;;1.83;;
18804;SDS011;9530;48.930;9.526;2023-01-01T10:47:23;5.23;;;2.20;;
18804;SDS011;9530;48.930;9.526;2023-01-01T10:49:52;5.63;;;2.10;;
18804;SDS011;9530;48.930;9.526;2023-01-01T10:52:21;4.57;;;2.40;;
18804;SDS011;9530;48.930;9.526;2023-01-01T10:54:51;7.77;;;2.30;;
18804;SDS011;9530;48.930;9.526;2023-01-01T10:57:19;5.33;;;2.40;;
18804;SDS011;9530;48.930;9.526;2023-01-01T10:59:55;6.20;;;2.17;;
18804;SDS011;9530;48.930;9.526;2023-01-01T11:02:38;10.37;;;2.27;;
18804;SDS011;9530;48.930;9.526;2023-01-01T11:05:12;3.67;;;2.20;;
18804;SDS011;9530;48.930;9.526;2023-01-01T11:07:41;7.77;;;2.30;;
18804;SDS011;9530;48.930;9.526;2023-01-01T11:10:14;4.77;;;1.90;;
18804;SDS011;9530;48.930;9.526;2023-01-01T11:12:43;6.00;;;2.43;;
18804;SDS011;9530;48.930;9.526;2023-01-01T11:15:19;8.67;;;2.20;;
18804;SDS011;9530;48.930;9.526;2023-01-01T11:17:49;11.33;;;2.50;;
18804;SDS011;9530;48.930;9.526;2023-01-01T11:20:17;5.40;;;2.03;;
18804;SDS011;9530;48.930;9.526;2023-01-01T11:22:46;7.47;;;2.03;;
18804;SDS011;9530;48.930;9.526;2023-01-01T11:25:18;5.20;;;1.90;;
18804;SDS011;9530;48.930;9.526;2023-01-01T11:27:46;3.53;;;2.00;;
18804;SDS011;9530;48.930;9.526;2023-01-01T11:30:24;8.63;;;2.50;;
18804;SDS011;9530;48.930;9.526;2023-01-01T11:32:55;4.57;;;2.00;;
18804;SDS011;9530;48.930;9.526;2023-01-01T11:35:24;4.00;;;2.10;;
18804;SDS011;9530;48.930;9.526;2023-01-01T11:37:53;5.00;;;2.33;;
18804;SDS011;9530;48.930;9.526;2023-01-01T11:40:23;6.30;;;2.03;;
18804;SDS011;9530;48.930;9.526;2023-01-01T11:42:52;5.27;;;2.00;;
18804;SDS011;9530;48.930;9.526;2023-01-01T11:45:22;5.03;;;1.93;;
18804;SDS011;9530;48.930;9.526;2023-01-01T11:47:54;4.83;;;2.00;;
18804;SDS011;9530;48.930;9.526;2023-01-01T11:50:24;5.27;;;2.07;;
18804;SDS011;9530;48.930;9.526;2023-01-01T11:52:55;4.73;;;1.80;;
18804;SDS011;9530;48.930;9.526;2023-01-01T11:55:27;4.70;;;2.30;;
18804;SDS011;9530;48.930;9.526;2023-01-01T11:58:03;4.73;;;2.13;;
18804;SDS011;9530;48.930;9.526;2023-01-01T12:00:39;4.67;;;2.10;;
18804;SDS011;9530;48.930;9.526;2023-01-01T12:03:13;6.47;;;2.23;;
18804;SDS011;9530;48.930;9.526;2023-01-01T12:05:46;5.47;;;2.40;;
18804;SDS011;9530;48.930;9.526;2023-01-01T12:08:18;7.07;;;2.03;;
18804;SDS011;9530;48.930;9.526;2023-01-01T12:10:50;8.50;;;2.17;;
18804;SDS011;9530;48.930;9.526;2023-01-01T12:13:21;6.97;;;2.23;;
18804;SDS011;9530;48.930;9.526;2023-01-01T12:15:54;3.97;;;2.00;;
18804;SDS011;9530;48.930;9.526;2023-01-01T12:18:31;4.53;;;1.97;;
18804;SDS011;9530;48.930;9.526;2023-01-01T12:21:02;5.37;;;2.47;;
18804;SDS011;9530;48.930;9.526;2023-01-01T12:23:36;4.70;;;1.97;;
18804;SDS011;9530;48.930;9.526;2023-01-01T12:26:05;5.47;;;1.90;;
18804;SDS011;9530;48.930;9.526;2023-01-01T12:28:42;6.23;;;2.17;;
18804;SDS011;9530;48.930;9.526;2023-01-01T12:31:25;5.00;;;1.80;;
18804;SDS011;9530;48.930;9.526;2023-01-01T12:34:05;6.23;;;2.20;;
18804;SDS011;9530;48.930;9.526;2023-01-01T12:36:39;4.30;;;2.10;;
18804;SDS011;9530;48.930;9.526;2023-01-01T12:39:34;4.13;;;1.90;;
18804;SDS011;9530;48.930;9.526;2023-01-01T12:42:26;6.27;;;2.40;;
18804;SDS011;9530;48.930;9.526;2023-01-01T12:45:11;5.87;;;2.07;;
18804;SDS011;9530;48.930;9.526;2023-01-01T12:47:48;7.77;;;2.13;;
18804;SDS011;9530;48.930;9.526;2023-01-01T12:50:26;5.70;;;2.10;;
18804;SDS011;9530;48.930;9.526;2023-01-01T12:53:03;6.50;;;2.00;;
18804;SDS011;9530;48.930;9.526;2023-01-01T12:55:41;4.17;;;1.93;;
18804;SDS011;9530;48.930;9.526;2023-01-01T12:58:22;4.13;;;1.90;;
18804;SDS011;9530;48.930;9.526;2023-01-01T13:00:54;5.90;;;2.40;;
18804;SDS011;9530;48.930;9.526;2023-01-01T13:03:25;6.70;;;2.03;;
18804;SDS011;9530;48.930;9.526;2023-01-01T13:05:57;4.83;;;1.93;;
18804;SDS011;9530;48.930;9.526;2023-01-01T13:08:25;5.40;;;1.83;;
18804;SDS011;9530;48.930;9.526;2023-01-01T13:10:53;8.60;;;2.20;;
18804;SDS011;9530;48.930;9.526;2023-01-01T13:13:22;8.03;;;2.03;;
18804;SDS011;9530;48.930;9.526;2023-01-01T13:15:50;5.77;;;2.17;;
18804;SDS011;9530;48.930;9.526;2023-01-01T13:18:28;6.90;;;2.00;;
18804;SDS011;9530;48.930;9.526;2023-01-01T13:21:19;7.37;;;2.30;;
18804;SDS011;9530;48.930;9.526;2023-01-01T13:23:50;8.87;;;2.50;;
18804;SDS011;9530;48.930;9.526;2023-01-01T13:26:31;9.33;;;2.20;;
18804;SDS011;9530;48.930;9.526;2023-01-01T13:32:09;5.70;;;1.83;;
18804;SDS011;9530;48.930;9.526;2023-01-01T13:40:29;7.17;;;2.20;;
18804;SDS011;9530;48.930;9.526;2023-01-01T13:43:06;6.57;;;1.90;;
18804;SDS011;9530;48.930;9.526;2023-01-01T13:46:00;3.27;;;2.00;;
18804;SDS011;9530;48.930;9.526;2023-01-01T13:48:34;5.27;;;2.10;;
18804;SDS011;9530;48.930;9.526;2023-01-01T13:51:14;5.43;;;2.70;;
18804;SDS011;9530;48.930;9.526;2023-01-01T13:53:58;6.87;;;2.00;;
18804;SDS011;9530;48.930;9.526;2023-01-01T13:56:46;6.43;;;2.30;;
18804;SDS011;9530;48.930;9.526;2023-01-01T13:59:28;4.50;;;2.27;;
18804;SDS011;9530;48.930;9.526;2023-01-01T14:02:14;8.30;;;3.10;;
18804;SDS011;9530;48.930;9.526;2023-01-01T14:04:48;4.50;;;2.10;;
18804;SDS011;9530;48.930;9.526;2023-01-01T14:07:19;6.53;;;2.20;;
18804;SDS011;9530;48.930;9.526;2023-01-01T14:12:47;9.43;;;2.93;;
18804;SDS011;9530;48.930;9.526;2023-01-01T14:15:15;5.43;;;2.60;;
18804;SDS011;9530;48.930;9.526;2023-01-01T14:17:47;7.13;;;2.47;;
18804;SDS011;9530;48.930;9.526;2023-01-01T14:20:15;7.40;;;2.43;;
18804;SDS011;9530;48.930;9.526;2023-01-01T14:22:44;8.00;;;2.50;;
18804;SDS011;9530;48.930;9.526;2023-01-01T14:25:13;8.27;;;2.93;;
18804;SDS011;9530;48.930;9.526;2023-01-01T14:27:43;4.47;;;2.40;;
18804;SDS011;9530;48.930;9.526;2023-01-01T14:30:16;5.80;;;2.57;;
18804;SDS011;9530;48.930;9.526;2023-01-01T14:32:43;7.47;;;2.50;;
18804;SDS011;9530;48.930;9.526;2023-01-01T14:35:11;5.43;;;2.40;;
18804;SDS011;9530;48.930;9.526;2023-01-01T14:37:39;6.53;;;2.40;;
18804;SDS011;9530;48.930;9.526;2023-01-01T14:40:07;5.47;;;2.30;;
18804;SDS011;9530;48.930;9.526;2023-01-01T14:42:43;7.17;;;2.57;;
18804;SDS011;9530;48.930;9.526;2023-01-01T14:45:14;4.83;;;2.30;;
18804;SDS011;9530;48.930;9.526;2023-01-01T14:47:43;7.37;;;2.37;;
18804;SDS011;9530;48.930;9.526;2023-01-01T14:50:16;5.77;;;2.40;;
18804;SDS011;9530;48.930;9.526;2023-01-01T14:52:49;4.20;;;2.53;;
18804;SDS011;9530;48.930;9.526;2023-01-01T14:55:18;6.13;;;2.60;;
18804;SDS011;9530;48.930;9.526;2023-01-01T14:57:46;9.50;;;2.80;;
18804;SDS011;9530;48.930;9.526;2023-01-01T15:00:22;6.17;;;2.80;;
18804;SDS011;9530;48.930;9.526;2023-01-01T15:02:50;5.40;;;2.47;;
18804;SDS011;9530;48.930;9.526;2023-01-01T15:05:26;6.53;;;2.50;;
18804;SDS011;9530;48.930;9.526;2023-01-01T15:07:55;4.97;;;1.90;;
18804;SDS011;9530;48.930;9.526;2023-01-01T15:10:24;5.17;;;2.33;;
18804;SDS011;9530;48.930;9.526;2023-01-01T15:12:53;3.50;;;2.00;;
18804;SDS011;9530;48.930;9.526;2023-01-01T15:15:32;4.23;;;2.37;;
18804;SDS011;9530;48.930;9.526;2023-01-01T15:18:03;5.60;;;2.03;;
18804;SDS011;9530;48.930;9.526;2023-01-01T15:20:31;4.60;;;2.47;;
18804;SDS011;9530;48.930;9.526;2023-01-01T15:23:00;6.87;;;2.30;;
18804;SDS011;9530;48.930;9.526;2023-01-01T15:25:26;7.37;;;2.70;;
18804;SDS011;9530;48.930;9.526;2023-01-01T15:27:56;6.00;;;2.90;;
18804;SDS011;9530;48.930;9.526;2023-01-01T15:30:24;6.77;;;2.53;;
18804;SDS011;9530;48.930;9.526;2023-01-01T15:32:52;8.30;;;2.70;;